Time;durP1;ratioP1;P1;durP2;ratioP2;P2;SDS_P1;SDS_P2;PMS_P1;PMS_P2;Temp;Humidity;BMP_temperature;BMP_pressure;BME280_temperature;BME280_humidity;BME280_pressure;Samples;Min_cycle;Max_cycle;Signal;HPM_P1;HPM_P2
2023/08/23 00:00:13;;;;;;;12.60;8.70;;;17.00;91.00;;;;;;5047101;28;20033;-47
2023/08/23 00:02:42;;;;;;;11.00;7.95;;;17.00;90.90;;;;;;5070324;28;20087;-46
2023/08/23 00:05:10;;;;;;;11.60;9.02;;;16.90;91.00;;;;;;5069673;28;20034;-46
2023/08/23 00:07:37;;;;;;;10.68;8.10;;;16.90;90.90;;;;;;5067820;28;20173;-46
2023/08/23 00:10:03;;;;;;;8.95;7.75;;;16.90;91.10;;;;;;5071239;28;20056;-46
2023/08/23 00:12:29;;;;;;;9.60;8.60;;;16.90;91.00;;;;;;5052976;28;20024;-45
2023/08/23 00:14:56;;;;;;;8.38;7.50;;;16.80;91.10;;;;;;5052796;28;20098;-46
2023/08/23 00:17:24;;;;;;;9.38;7.57;;;16.80;91.00;;;;;;5054222;28;20044;-48
2023/08/23 00:19:55;;;;;;;9.32;7.35;;;16.80;91.10;;;;;;5056852;28;20766;-46
2023/08/23 00:22:24;;;;;;;9.43;7.15;;;16.70;91.10;;;;;;5051667;28;20051;-46
2023/08/23 00:24:50;;;;;;;10.90;7.30;;;16.70;91.20;;;;;;5064232;28;20033;-46
2023/08/23 00:27:17;;;;;;;11.00;7.57;;;16.70;91.30;;;;;;5054883;28;20496;-46
2023/08/23 00:29:43;;;;;;;10.43;7.45;;;16.70;91.30;;;;;;5070927;28;20119;-47
2023/08/23 00:32:10;;;;;;;9.68;6.80;;;16.60;91.30;;;;;;5038234;28;20143;-46
2023/08/23 00:34:37;;;;;;;9.57;7.28;;;16.60;91.40;;;;;;5045284;28;20434;-46
2023/08/23 00:37:04;;;;;;;8.63;6.30;;;16.60;91.30;;;;;;5072256;28;20021;-45
2023/08/23 00:39:31;;;;;;;10.27;7.47;;;16.60;91.40;;;;;;5069823;28;20039;-46
2023/08/23 00:42:01;;;;;;;9.65;7.00;;;16.60;91.20;;;;;;5053284;28;20066;-46
2023/08/23 00:44:27;;;;;;;10.90;6.05;;;16.50;91.20;;;;;;5053813;28;20107;-45
2023/08/23 00:46:54;;;;;;;15.23;7.57;;;16.50;91.20;;;;;;5036313;28;20033;-46
2023/08/23 00:49:22;;;;;;;24.48;7.90;;;16.50;91.30;;;;;;5055913;28;20430;-46
2023/08/23 00:51:51;;;;;;;8.45;6.05;;;16.50;91.40;;;;;;5031621;28;20116;-45
2023/08/23 00:54:23;;;;;;;7.35;5.85;;;16.40;91.40;;;;;;5051574;28;20345;-47
2023/08/23 00:56:50;;;;;;;8.48;6.53;;;16.50;91.40;;;;;;5051972;28;20153;-45
2023/08/23 00:59:18;;;;;;;7.45;6.45;;;16.40;91.30;;;;;;5051691;28;20048;-45
2023/08/23 01:01:45;;;;;;;7.55;6.22;;;16.40;91.40;;;;;;5057183;28;20029;-45
2023/08/23 01:04:11;;;;;;;7.72;6.55;;;16.40;91.40;;;;;;5068436;28;20457;-46
2023/08/23 01:06:55;;;;;;;8.70;5.75;;;16.40;91.30;;;;;;5049568;28;20032;-45
2023/08/23 01:09:59;;;;;;;7.20;5.00;;;16.40;91.30;;;;;;5065203;28;20054;-45
2023/08/23 01:13:00;;;;;;;9.60;6.05;;;16.30;91.30;;;;;;5035116;28;20507;-45
2023/08/23 01:15:29;;;;;;;11.75;5.88;;;16.30;91.40;;;;;;5026222;28;20045;-45
2023/08/23 01:17:58;;;;;;;9.60;5.80;;;16.30;91.50;;;;;;5066364;28;20358;-45
2023/08/23 01:20:24;;;;;;;7.87;6.27;;;16.30;91.60;;;;;;5027049;28;20036;-45
2023/08/23 01:23:13;;;;;;;7.07;6.00;;;16.30;91.70;;;;;;5053942;28;20057;-45
2023/08/23 01:25:49;;;;;;;8.30;6.07;;;16.30;91.80;;;;;;5058896;28;20054;-45
2023/08/23 01:28:17;;;;;;;6.75;5.57;;;16.20;91.80;;;;;;5069712;28;20287;-45
2023/08/23 01:30:43;;;;;;;7.13;5.80;;;16.30;91.90;;;;;;5066387;28;20524;-45
2023/08/23 01:33:20;;;;;;;11.25;6.35;;;16.20;91.90;;;;;;5033854;28;20545;-45
2023/08/23 01:36:01;;;;;;;9.63;6.15;;;16.20;91.90;;;;;;5068553;28;20044;-45
2023/08/23 01:38:31;;;;;;;7.85;5.60;;;16.20;91.90;;;;;;5067810;28;20048;-44
2023/08/23 01:40:59;;;;;;;8.73;6.50;;;16.20;91.90;;;;;;5035453;28;20206;-44
2023/08/23 01:43:27;;;;;;;8.93;5.53;;;16.20;91.80;;;;;;5048640;28;20035;-44
2023/08/23 01:45:53;;;;;;;8.85;6.10;;;16.20;92.00;;;;;;5073888;28;20107;-44
2023/08/23 01:48:21;;;;;;;7.28;6.10;;;16.20;91.90;;;;;;5052551;28;20159;-44
2023/08/23 01:50:50;;;;;;;9.02;6.28;;;16.10;91.80;;;;;;5066243;28;20032;-44
2023/08/23 01:53:15;;;;;;;8.30;5.80;;;16.10;91.90;;;;;;5039667;28;20028;-47
2023/08/23 01:55:43;;;;;;;8.27;6.45;;;16.10;92.00;;;;;;5073750;28;20035;-44
2023/08/23 01:58:10;;;;;;;7.60;5.70;;;16.10;91.90;;;;;;5074548;28;20024;-44
2023/08/23 02:00:38;;;;;;;10.30;6.13;;;16.00;91.90;;;;;;5073327;28;20100;-45
2023/08/23 02:03:05;;;;;;;7.25;5.90;;;16.10;92.00;;;;;;5072963;28;20109;-44
2023/08/23 02:05:32;;;;;;;7.00;5.68;;;16.00;92.00;;;;;;5072368;28;20020;-44
2023/08/23 02:07:58;;;;;;;7.47;5.97;;;16.00;92.00;;;;;;5074568;28;20024;-45
2023/08/23 02:10:28;;;;;;;8.18;6.55;;;16.00;92.00;;;;;;5071098;28;20043;-45
2023/08/23 02:12:54;;;;;;;9.73;6.85;;;15.90;91.90;;;;;;5072844;28;20041;-45
2023/08/23 02:15:20;;;;;;;8.90;5.93;;;15.90;92.00;;;;;;5055796;28;20458;-44
2023/08/23 02:17:46;;;;;;;8.48;6.18;;;15.90;91.90;;;;;;5056966;28;20052;-46
2023/08/23 02:20:13;;;;;;;7.55;6.40;;;15.90;92.10;;;;;;5064355;28;20025;-44
2023/08/23 02:22:42;;;;;;;9.57;6.88;;;15.90;92.00;;;;;;5074216;28;20104;-44
2023/08/23 02:25:08;;;;;;;7.53;6.72;;;15.90;92.20;;;;;;5074232;28;20449;-44
2023/08/23 02:27:34;;;;;;;10.05;6.25;;;15.90;92.20;;;;;;5073177;28;20045;-43
2023/08/23 02:30:04;;;;;;;9.73;6.13;;;15.90;92.30;;;;;;5073099;28;20032;-44
2023/08/23 02:32:33;;;;;;;6.72;5.70;;;15.90;92.30;;;;;;5069009;28;20097;-44
2023/08/23 02:35:01;;;;;;;6.22;5.63;;;15.90;92.30;;;;;;5070308;28;20036;-42
2023/08/23 02:37:28;;;;;;;7.35;5.85;;;15.90;92.20;;;;;;5036107;28;20036;-46
2023/08/23 02:39:54;;;;;;;8.48;5.80;;;15.80;92.20;;;;;;5067454;28;20055;-44
2023/08/23 02:42:20;;;;;;;6.00;5.32;;;15.80;92.20;;;;;;5057318;28;20095;-44
2023/08/23 02:44:47;;;;;;;9.07;6.25;;;15.80;92.20;;;;;;5055294;28;20450;-44
2023/08/23 02:47:14;;;;;;;7.05;6.13;;;15.80;92.30;;;;;;5058747;28;20036;-43
2023/08/23 02:49:42;;;;;;;6.18;4.88;;;15.70;92.20;;;;;;5068613;28;20035;-44
2023/08/23 02:52:09;;;;;;;6.60;4.80;;;15.70;92.20;;;;;;5051848;28;20103;-44
2023/08/23 02:54:35;;;;;;;5.82;5.22;;;15.70;92.20;;;;;;5035615;28;20449;-43
2023/08/23 02:57:02;;;;;;;8.38;5.88;;;15.70;92.50;;;;;;5047168;28;20032;-43
2023/08/23 02:59:30;;;;;;;8.35;6.65;;;15.70;92.50;;;;;;5072647;28;20725;-44
2023/08/23 03:01:58;;;;;;;7.18;6.18;;;15.70;92.70;;;;;;5068772;28;20111;-43
2023/08/23 03:04:25;;;;;;;10.65;6.60;;;15.80;92.80;;;;;;5053244;28;20028;-44
2023/08/23 03:06:51;;;;;;;7.40;6.38;;;15.80;92.80;;;;;;5053318;28;20060;-43
2023/08/23 03:09:18;;;;;;;5.97;5.32;;;15.80;92.70;;;;;;5053514;28;20098;-44
2023/08/23 03:11:45;;;;;;;5.95;5.20;;;15.80;92.70;;;;;;5049099;28;20041;-44
2023/08/23 03:14:12;;;;;;;5.68;4.60;;;15.80;92.70;;;;;;5071599;28;20477;-43
2023/08/23 03:16:38;;;;;;;5.05;4.30;;;15.80;92.60;;;;;;5050994;28;20373;-44
2023/08/23 03:19:08;;;;;;;7.03;4.68;;;15.70;92.50;;;;;;5068486;28;20044;-44
2023/08/23 03:21:37;;;;;;;4.68;3.85;;;15.70;92.60;;;;;;5064321;28;20040;-43
2023/08/23 03:24:04;;;;;;;5.45;4.68;;;15.60;92.50;;;;;;5072293;28;20021;-43
2023/08/23 03:26:33;;;;;;;4.70;4.20;;;15.60;92.50;;;;;;5072750;28;20021;-43
2023/08/23 03:29:04;;;;;;;5.93;5.43;;;15.60;92.60;;;;;;5073083;28;20111;-43
2023/08/23 03:31:29;;;;;;;6.00;5.13;;;15.60;92.60;;;;;;5070663;28;20047;-43
2023/08/23 03:33:56;;;;;;;6.07;5.47;;;15.60;92.70;;;;;;5069964;28;20036;-43
2023/08/23 03:36:24;;;;;;;5.80;5.20;;;15.60;92.70;;;;;;5072780;28;20361;-42
2023/08/23 03:38:49;;;;;;;6.95;6.22;;;15.60;92.70;;;;;;5071962;28;20028;-44
2023/08/23 03:41:17;;;;;;;8.82;6.93;;;15.60;92.70;;;;;;5071998;28;20047;-43
2023/08/23 03:43:44;;;;;;;6.15;5.55;;;15.60;92.60;;;;;;5071635;28;20029;-43
2023/08/23 03:46:13;;;;;;;6.55;5.85;;;15.50;92.70;;;;;;5071933;28;20025;-43
2023/08/23 03:48:40;;;;;;;5.63;4.95;;;15.50;92.70;;;;;;5071829;28;20360;-43
2023/08/23 03:51:06;;;;;;;5.93;5.22;;;15.50;92.70;;;;;;5066717;28;20103;-43
2023/08/23 03:53:34;;;;;;;6.28;5.68;;;15.50;92.60;;;;;;5053527;28;20131;-43
2023/08/23 03:56:02;;;;;;;6.28;5.47;;;15.50;92.70;;;;;;5055282;28;20028;-44
2023/08/23 03:58:31;;;;;;;7.25;6.18;;;15.40;92.60;;;;;;5072195;28;20071;-43
2023/08/23 04:00:57;;;;;;;7.82;6.07;;;15.50;92.70;;;;;;5066477;28;20032;-43
2023/08/23 04:03:23;;;;;;;7.75;5.78;;;15.40;92.60;;;;;;5034881;28;20553;-43
2023/08/23 04:05:49;;;;;;;7.40;6.70;;;15.40;92.60;;;;;;5054038;28;20108;-42
2023/08/23 04:08:18;;;;;;;5.93;5.18;;;15.40;92.60;;;;;;5067151;28;20040;-43
2023/08/23 04:10:52;;;;;;;6.45;5.80;;;15.40;92.70;;;;;;5051481;28;20364;-42
2023/08/23 04:13:19;;;;;;;6.60;5.70;;;15.40;92.70;;;;;;5061590;28;20024;-44
2023/08/23 04:15:46;;;;;;;6.45;5.75;;;15.40;92.60;;;;;;5067080;28;20036;-43
2023/08/23 04:18:12;;;;;;;7.03;6.32;;;15.40;92.60;;;;;;5052004;28;20437;-43
2023/08/23 04:20:40;;;;;;;6.57;5.57;;;15.40;92.60;;;;;;5040243;28;20037;-43
2023/08/23 04:23:08;;;;;;;7.28;6.53;;;15.40;92.70;;;;;;5056250;28;20082;-42
2023/08/23 04:25:36;;;;;;;6.80;6.13;;;15.40;92.70;;;;;;5072040;28;20052;-43
2023/08/23 04:28:04;;;;;;;8.18;6.47;;;15.40;92.80;;;;;;5071183;28;20025;-42
2023/08/23 04:30:29;;;;;;;9.52;6.68;;;15.40;92.60;;;;;;5068420;28;20028;-44
2023/08/23 04:32:56;;;;;;;6.57;5.80;;;15.40;92.80;;;;;;5067368;28;20504;-46
2023/08/23 04:35:24;;;;;;;7.78;6.85;;;15.40;92.90;;;;;;5053895;28;20033;-43
2023/08/23 04:37:52;;;;;;;6.68;5.57;;;15.40;92.90;;;;;;5067114;28;20450;-43
2023/08/23 04:40:19;;;;;;;7.95;6.38;;;15.40;92.90;;;;;;5062669;28;20049;-43
2023/08/23 04:42:46;;;;;;;7.47;6.78;;;15.40;92.90;;;;;;5056819;28;20044;-43
2023/08/23 04:45:13;;;;;;;7.10;6.32;;;15.50;93.00;;;;;;5067126;28;20020;-43
2023/08/23 04:47:40;;;;;;;8.57;7.68;;;15.50;92.90;;;;;;5054409;28;20020;-43
2023/08/23 04:50:06;;;;;;;8.50;7.60;;;15.50;92.80;;;;;;5054054;28;20083;-43
2023/08/23 04:52:33;;;;;;;8.48;7.47;;;15.50;92.90;;;;;;5070852;28;20036;-45
2023/08/23 04:54:59;;;;;;;12.05;8.75;;;15.60;92.80;;;;;;5065481;28;20086;-43
2023/08/23 04:57:26;;;;;;;11.40;9.90;;;15.50;92.70;;;;;;5053054;28;20037;-43
2023/08/23 04:59:56;;;;;;;10.68;8.05;;;15.50;92.70;;;;;;5072113;28;20060;-42
2023/08/23 05:02:21;;;;;;;10.45;9.18;;;15.60;92.90;;;;;;5056834;28;20951;-43
2023/08/23 05:04:50;;;;;;;9.45;8.45;;;15.60;92.90;;;;;;5069688;28;20025;-43
2023/08/23 05:07:16;;;;;;;11.68;10.10;;;15.70;93.00;;;;;;5070133;28;20024;-44
2023/08/23 05:09:43;;;;;;;10.82;9.73;;;15.70;92.90;;;;;;5050018;28;20029;-43
2023/08/23 05:12:14;;;;;;;12.35;10.48;;;15.70;92.80;;;;;;5068255;28;20157;-43
2023/08/23 05:14:43;;;;;;;11.57;10.38;;;15.70;93.00;;;;;;5066513;28;20075;-45
2023/08/23 05:17:08;;;;;;;12.60;11.32;;;15.70;93.00;;;;;;5067870;28;20036;-46
2023/08/23 05:19:35;;;;;;;12.15;10.88;;;15.70;93.10;;;;;;5075266;28;20024;-43
2023/08/23 05:22:06;;;;;;;14.05;11.50;;;15.80;93.20;;;;;;5037236;28;20029;-43
2023/08/23 05:24:35;;;;;;;12.30;10.98;;;15.80;93.30;;;;;;5060713;28;20037;-43
2023/08/23 05:27:04;;;;;;;11.60;10.50;;;15.80;93.30;;;;;;5056815;28;20430;-43
2023/08/23 05:29:33;;;;;;;13.43;11.60;;;15.90;93.30;;;;;;5059558;28;20075;-44
2023/08/23 05:32:00;;;;;;;11.57;10.43;;;15.90;93.40;;;;;;5066917;28;20033;-43
2023/08/23 05:34:27;;;;;;;13.80;12.38;;;15.90;93.40;;;;;;5057241;28;20037;-43
2023/08/23 05:36:53;;;;;;;15.48;13.90;;;15.90;93.40;;;;;;5073040;28;20029;-44
2023/08/23 05:39:20;;;;;;;16.15;14.45;;;16.00;93.30;;;;;;5055547;28;20047;-43
2023/08/23 05:41:47;;;;;;;16.70;14.98;;;16.00;93.40;;;;;;5060478;28;20063;-43
2023/08/23 05:44:13;;;;;;;15.30;13.70;;;16.00;93.50;;;;;;5064538;28;20439;-44
2023/08/23 05:46:40;;;;;;;13.40;12.05;;;16.10;93.60;;;;;;5057419;28;20029;-44
2023/08/23 05:49:08;;;;;;;16.35;14.65;;;16.10;93.60;;;;;;5047774;28;20129;-45
2023/08/23 05:51:37;;;;;;;15.85;14.27;;;16.20;93.60;;;;;;5065937;28;20029;-45
2023/08/23 05:54:04;;;;;;;15.98;14.27;;;16.20;93.60;;;;;;5066051;28;20033;-43
2023/08/23 05:56:34;;;;;;;16.48;14.45;;;16.20;93.60;;;;;;5074900;28;20113;-46
2023/08/23 05:59:02;;;;;;;18.13;13.73;;;16.40;93.70;;;;;;5073030;28;20169;-43
2023/08/23 06:01:28;;;;;;;16.88;15.10;;;16.40;93.80;;;;;;5068356;28;20025;-46
2023/08/23 06:03:56;;;;;;;16.10;14.52;;;16.50;93.80;;;;;;5042701;28;20112;-44
2023/08/23 06:06:24;;;;;;;17.70;15.90;;;16.60;93.70;;;;;;5036862;28;20135;-44
2023/08/23 06:08:51;;;;;;;17.27;15.30;;;16.60;93.50;;;;;;5064725;28;20032;-45
2023/08/23 06:11:17;;;;;;;19.63;17.38;;;16.60;93.60;;;;;;5041498;28;20099;-47
2023/08/23 06:13:44;;;;;;;16.25;14.43;;;16.60;93.80;;;;;;5063012;28;20024;-45
2023/08/23 06:16:13;;;;;;;17.80;15.15;;;16.70;93.80;;;;;;5064887;28;20370;-45
2023/08/23 06:18:40;;;;;;;17.25;15.43;;;16.90;94.00;;;;;;5066343;28;20426;-44
2023/08/23 06:21:09;;;;;;;21.92;17.50;;;16.90;94.00;;;;;;5068232;28;20024;-45
2023/08/23 06:23:43;;;;;;;17.67;15.38;;;17.00;93.80;;;;;;5055199;28;20028;-46
2023/08/23 06:26:11;;;;;;;16.80;15.02;;;17.10;93.90;;;;;;5073264;28;20365;-46
2023/08/23 06:28:38;;;;;;;18.90;16.25;;;17.20;94.00;;;;;;5069307;28;20012;-44
2023/08/23 06:31:07;;;;;;;17.80;15.88;;;17.30;93.90;;;;;;5026095;28;20045;-44
2023/08/23 06:33:36;;;;;;;17.50;15.65;;;17.30;93.70;;;;;;5071328;28;20492;-45
2023/08/23 06:36:05;;;;;;;17.40;15.60;;;17.40;93.50;;;;;;5072266;28;20404;-45
2023/08/23 06:38:34;;;;;;;18.67;16.88;;;17.40;93.50;;;;;;5067590;28;20103;-44
2023/08/23 06:41:00;;;;;;;16.35;14.80;;;17.40;93.50;;;;;;5053915;28;20130;-47
2023/08/23 06:43:27;;;;;;;19.27;16.50;;;17.50;93.50;;;;;;5056238;28;20341;-46
2023/08/23 06:45:55;;;;;;;19.17;16.65;;;17.50;93.20;;;;;;5044474;28;20120;-46
2023/08/23 06:48:24;;;;;;;16.67;15.05;;;17.50;93.20;;;;;;5070167;28;20052;-48
2023/08/23 06:50:51;;;;;;;18.98;16.98;;;17.60;93.40;;;;;;5071915;28;20437;-46
2023/08/23 06:53:18;;;;;;;19.55;17.35;;;17.70;93.20;;;;;;5053774;28;20064;-46
2023/08/23 06:55:48;;;;;;;16.77;14.40;;;17.70;93.10;;;;;;5072386;28;20047;-48
2023/08/23 06:58:17;;;;;;;15.68;13.98;;;17.80;93.10;;;;;;5055284;28;20091;-47
2023/08/23 07:00:44;;;;;;;18.80;15.27;;;17.90;93.10;;;;;;5053339;28;20041;-46
2023/08/23 07:03:13;;;;;;;17.05;14.57;;;17.90;92.90;;;;;;5044016;28;20687;-47
2023/08/23 07:05:41;;;;;;;21.63;17.25;;;18.00;92.90;;;;;;5040820;28;20036;-48
2023/08/23 07:08:06;;;;;;;16.55;14.60;;;18.00;92.30;;;;;;5062132;28;20036;-47
2023/08/23 07:10:32;;;;;;;16.38;14.60;;;18.00;92.60;;;;;;5073521;28;20051;-47
2023/08/23 07:12:57;;;;;;;12.88;11.32;;;18.10;92.50;;;;;;5069969;28;20035;-47
2023/08/23 07:15:25;;;;;;;14.10;11.63;;;18.20;92.50;;;;;;5065540;28;20119;-48
2023/08/23 07:17:51;;;;;;;14.45;11.10;;;18.30;92.30;;;;;;5054848;28;20075;-51
2023/08/23 07:20:21;;;;;;;15.43;11.85;;;18.40;92.60;;;;;;5051175;28;20133;-46
2023/08/23 07:22:52;;;;;;;14.00;12.52;;;18.50;92.30;;;;;;5039511;28;20036;-47
2023/08/23 07:25:18;;;;;;;13.38;11.35;;;18.60;91.70;;;;;;5050877;28;20334;-49
2023/08/23 07:27:44;;;;;;;12.57;11.10;;;18.70;91.70;;;;;;5054377;28;20044;-47
2023/08/23 07:30:12;;;;;;;13.40;10.45;;;18.70;91.10;;;;;;5036550;28;20024;-47
2023/08/23 07:32:41;;;;;;;12.25;10.70;;;18.60;90.20;;;;;;5043330;28;20453;-47
2023/08/23 07:35:09;;;;;;;15.57;11.10;;;18.60;90.50;;;;;;5069064;28;20115;-48
2023/08/23 07:37:38;;;;;;;12.13;9.90;;;18.70;90.70;;;;;;5071585;28;20473;-50
2023/08/23 07:40:07;;;;;;;14.55;10.23;;;18.70;91.00;;;;;;5071371;28;20721;-49
2023/08/23 07:42:34;;;;;;;11.23;8.43;;;18.90;90.60;;;;;;5070393;28;20032;-51
2023/08/23 07:45:05;;;;;;;9.63;7.15;;;19.00;90.50;;;;;;5055854;28;20044;-49
2023/08/23 07:47:31;;;;;;;14.02;6.32;;;19.30;89.90;;;;;;5060287;28;20028;-52
2023/08/23 07:49:57;;;;;;;7.75;6.05;;;19.40;89.20;;;;;;5066592;28;20020;-51
2023/08/23 07:52:28;;;;;;;10.40;5.70;;;19.50;88.60;;;;;;5052551;28;20031;-49
2023/08/23 07:54:57;;;;;;;11.05;6.15;;;19.80;87.10;;;;;;5070625;28;20033;-51
2023/08/23 07:57:22;;;;;;;12.20;5.90;;;20.20;87.30;;;;;;5055373;28;20032;-48
2023/08/23 07:59:48;;;;;;;6.82;3.90;;;20.40;85.50;;;;;;5059661;28;20537;-49
2023/08/23 08:02:22;;;;;;;6.00;3.72;;;20.60;85.20;;;;;;5069412;28;20035;-49
2023/08/23 08:04:49;;;;;;;9.63;4.07;;;20.70;83.90;;;;;;5059203;28;20043;-52
2023/08/23 08:07:16;;;;;;;5.57;3.65;;;20.70;82.20;;;;;;5061091;28;20033;-53
2023/08/23 08:09:42;;;;;;;4.63;2.97;;;21.00;82.00;;;;;;5036797;28;20045;-49
2023/08/23 08:12:08;;;;;;;4.93;2.95;;;21.50;82.30;;;;;;5068359;28;20055;-53
2023/08/23 08:14:34;;;;;;;4.18;2.70;;;21.90;79.80;;;;;;5049299;28;20510;-50
2023/08/23 08:17:00;;;;;;;5.55;3.25;;;22.00;78.70;;;;;;5066802;28;20037;-48
2023/08/23 08:19:26;;;;;;;4.82;2.35;;;22.40;78.30;;;;;;5057595;28;20334;-52
2023/08/23 08:21:53;;;;;;;6.38;3.13;;;22.60;76.00;;;;;;5061592;28;20081;-50
2023/08/23 08:24:20;;;;;;;4.05;2.42;;;22.90;75.10;;;;;;5034710;28;20076;-53
2023/08/23 08:26:48;;;;;;;4.88;2.15;;;23.10;75.00;;;;;;5062068;28;20025;-49
2023/08/23 08:29:16;;;;;;;4.90;2.22;;;23.30;74.70;;;;;;5070702;28;20468;-51
2023/08/23 08:31:44;;;;;;;4.60;2.45;;;23.20;73.70;;;;;;5069872;28;20081;-50
2023/08/23 08:34:10;;;;;;;4.07;2.58;;;23.30;73.60;;;;;;5065552;28;20036;-53
2023/08/23 08:36:36;;;;;;;4.13;2.25;;;23.40;73.20;;;;;;5052957;28;20380;-49
2023/08/23 08:39:03;;;;;;;4.57;2.92;;;23.60;74.20;;;;;;5054379;28;20036;-51
2023/08/23 08:41:30;;;;;;;2.97;1.60;;;23.90;73.10;;;;;;5070034;28;20454;-51
2023/08/23 08:43:58;;;;;;;4.68;2.55;;;24.00;72.70;;;;;;5034349;28;20040;-53
2023/08/23 08:46:25;;;;;;;3.60;1.90;;;23.90;70.70;;;;;;5032811;28;20033;-50
2023/08/23 08:48:52;;;;;;;4.00;2.28;;;24.00;72.00;;;;;;5070853;28;20373;-52
2023/08/23 08:51:20;;;;;;;4.65;2.03;;;24.10;72.00;;;;;;5059241;28;20107;-53
2023/08/23 08:53:52;;;;;;;4.90;2.38;;;24.40;71.60;;;;;;5058595;28;20039;-50
2023/08/23 08:56:20;;;;;;;3.55;1.30;;;24.50;73.20;;;;;;5056629;28;20078;-53
2023/08/23 08:58:46;;;;;;;2.78;1.75;;;24.40;69.50;;;;;;5055684;28;20142;-52
2023/08/23 09:01:14;;;;;;;5.07;1.60;;;24.70;69.30;;;;;;5067893;28;20028;-54
2023/08/23 09:03:41;;;;;;;2.85;1.83;;;24.90;70.70;;;;;;5071234;28;20059;-49
2023/08/23 09:06:09;;;;;;;4.93;1.55;;;25.00;70.70;;;;;;5072594;28;20028;-53
2023/08/23 09:08:38;;;;;;;2.10;1.17;;;24.90;68.70;;;;;;5058018;28;20075;-52
2023/08/23 09:11:07;;;;;;;3.90;1.10;;;24.90;67.50;;;;;;5075408;28;20385;-53
2023/08/23 09:13:34;;;;;;;2.90;1.35;;;24.90;68.30;;;;;;5051908;28;20048;-52
2023/08/23 09:16:04;;;;;;;4.03;1.50;;;24.90;67.10;;;;;;5038567;28;20048;-50
2023/08/23 09:18:33;;;;;;;4.43;1.40;;;24.90;69.40;;;;;;5056095;28;20028;-54
2023/08/23 09:20:58;;;;;;;3.50;1.30;;;24.90;66.30;;;;;;5050539;28;20083;-55
2023/08/23 09:23:25;;;;;;;2.67;1.55;;;25.10;67.40;;;;;;5042268;28;20028;-51
2023/08/23 09:25:53;;;;;;;2.72;1.50;;;25.10;69.40;;;;;;5075463;28;20021;-51
2023/08/23 09:28:24;;;;;;;3.85;1.50;;;25.10;66.40;;;;;;5073222;28;20032;-54
2023/08/23 09:30:51;;;;;;;3.58;1.60;;;25.00;67.60;;;;;;5073606;28;20395;-52
2023/08/23 09:33:18;;;;;;;2.92;1.35;;;25.10;65.80;;;;;;5073063;28;20043;-51
2023/08/23 09:35:48;;;;;;;2.92;1.60;;;25.20;66.50;;;;;;5073640;28;20036;-51
2023/08/23 09:38:24;;;;;;;3.83;1.60;;;25.30;66.90;;;;;;5035539;28;20040;-54
2023/08/23 09:40:52;;;;;;;4.82;2.17;;;25.30;63.30;;;;;;5038314;28;20045;-53
2023/08/23 09:43:19;;;;;;;4.22;2.20;;;25.10;64.80;;;;;;5062306;28;20033;-50
2023/08/23 09:45:52;;;;;;;3.50;1.70;;;25.10;65.30;;;;;;5036270;28;20041;-50
2023/08/23 09:48:26;;;;;;;4.00;1.65;;;25.00;66.00;;;;;;5067741;28;20027;-53
2023/08/23 09:50:52;;;;;;;4.80;2.28;;;24.70;65.50;;;;;;5073758;28;20032;-50
2023/08/23 09:53:25;;;;;;;3.03;1.77;;;24.60;66.50;;;;;;5040527;28;20044;-50
2023/08/23 09:55:54;;;;;;;3.15;1.58;;;24.50;67.60;;;;;;5037667;28;20447;-53
2023/08/23 09:58:24;;;;;;;3.75;1.45;;;24.50;68.50;;;;;;5072207;28;20453;-54
2023/08/23 10:00:53;;;;;;;3.72;1.40;;;24.70;67.80;;;;;;5037128;28;20090;-52
2023/08/23 10:03:25;;;;;;;3.72;2.08;;;25.10;68.70;;;;;;5059824;28;20040;-52
2023/08/23 10:05:54;;;;;;;6.45;2.28;;;25.00;65.40;;;;;;5073882;28;20024;-54
2023/08/23 10:08:23;;;;;;;2.97;1.65;;;24.90;64.80;;;;;;5054022;28;20041;-54
2023/08/23 10:10:54;;;;;;;4.60;1.85;;;24.90;65.80;;;;;;5057659;28;20037;-53
2023/08/23 10:13:26;;;;;;;2.58;1.50;;;24.90;66.90;;;;;;5070912;28;20020;-52
2023/08/23 10:15:54;;;;;;;3.75;1.27;;;25.30;67.40;;;;;;5044877;28;20055;-57
2023/08/23 10:18:22;;;;;;;2.05;1.40;;;25.40;66.50;;;;;;5040727;28;20167;-53
2023/08/23 10:20:51;;;;;;;5.38;1.35;;;25.20;65.30;;;;;;5039070;28;20846;-57
2023/08/23 10:23:21;;;;;;;3.20;1.70;;;25.40;66.30;;;;;;5066307;28;20032;-54
2023/08/23 10:25:50;;;;;;;5.88;1.88;;;25.40;64.60;;;;;;5039492;28;20588;-52
2023/08/23 10:28:18;;;;;;;2.45;1.45;;;25.10;63.90;;;;;;5057081;28;20352;-52
2023/08/23 10:30:49;;;;;;;3.72;1.33;;;25.20;67.40;;;;;;5072268;28;20381;-52
2023/08/23 10:33:19;;;;;;;4.90;1.95;;;25.50;68.20;;;;;;5045744;28;20396;-52
2023/08/23 10:35:48;;;;;;;6.38;1.75;;;25.40;65.40;;;;;;5040452;28;20043;-54
2023/08/23 10:38:14;;;;;;;2.08;1.20;;;25.40;63.90;;;;;;5054267;28;20033;-57
2023/08/23 10:40:45;;;;;;;3.53;1.50;;;25.30;63.10;;;;;;5072806;28;20040;-52
2023/08/23 10:43:18;;;;;;;3.72;1.55;;;25.10;63.90;;;;;;5038745;28;20029;-54
2023/08/23 10:45:56;;;;;;;3.80;1.67;;;25.00;64.80;;;;;;5054545;28;20040;-55
2023/08/23 10:48:23;;;;;;;4.18;1.80;;;25.20;65.40;;;;;;5050585;28;20036;-54
2023/08/23 10:50:53;;;;;;;2.88;1.75;;;25.40;63.90;;;;;;5072228;28;20513;-53
2023/08/23 10:53:21;;;;;;;4.82;1.77;;;24.90;63.20;;;;;;5039539;28;20033;-57
2023/08/23 10:55:50;;;;;;;3.42;1.30;;;24.70;63.80;;;;;;5023045;28;20052;-54
2023/08/23 10:58:19;;;;;;;5.47;2.07;;;24.80;66.40;;;;;;5073043;28;20103;-50
2023/08/23 11:00:50;;;;;;;4.72;2.00;;;24.60;65.30;;;;;;5071001;28;20336;-53
2023/08/23 11:03:17;;;;;;;8.05;1.98;;;24.60;67.20;;;;;;5039569;28;20044;-52
2023/08/23 11:05:44;;;;;;;4.93;2.25;;;24.50;64.70;;;;;;5053740;28;20043;-53
2023/08/23 11:08:12;;;;;;;7.03;2.38;;;24.60;66.30;;;;;;5055888;28;20342;-52
2023/08/23 11:10:38;;;;;;;3.58;1.85;;;24.80;66.60;;;;;;5072873;28;20029;-56
2023/08/23 11:13:06;;;;;;;4.30;1.83;;;24.90;66.50;;;;;;5051919;28;20035;-56
2023/08/23 11:15:34;;;;;;;5.75;1.80;;;25.00;64.90;;;;;;5039659;28;20465;-53
2023/08/23 11:18:03;;;;;;;4.80;2.10;;;24.80;65.30;;;;;;5064460;28;20035;-53
2023/08/23 11:20:31;;;;;;;;;;;24.70;66.30;;;;;;5065410;28;20418;-56
2023/08/23 11:22:57;;;;;;;5.40;2.25;;;24.90;67.50;;;;;;5054061;28;20007;-55
2023/08/23 11:25:23;;;;;;;3.75;2.22;;;25.30;67.90;;;;;;5068927;28;20166;-56
2023/08/23 11:27:51;;;;;;;4.43;2.10;;;25.30;65.00;;;;;;5053634;28;20047;-50
2023/08/23 11:30:22;;;;;;;5.13;2.50;;;25.30;66.20;;;;;;5021600;28;20037;-51
2023/08/23 11:32:49;;;;;;;4.63;2.28;;;25.40;64.30;;;;;;5037557;28;20361;-54
2023/08/23 11:35:25;;;;;;;4.20;1.88;;;25.60;67.00;;;;;;5067995;28;20403;-56
2023/08/23 11:37:53;;;;;;;6.80;2.35;;;25.90;65.90;;;;;;5039489;28;20029;-52
2023/08/23 11:40:22;;;;;;;4.45;2.30;;;25.70;62.70;;;;;;5029708;28;20420;-55
2023/08/23 11:42:49;;;;;;;4.28;2.10;;;25.40;64.00;;;;;;5045155;28;20037;-52
2023/08/23 11:45:16;;;;;;;4.65;1.77;;;25.40;63.80;;;;;;5051944;28;20039;-57
2023/08/23 11:47:50;;;;;;;5.22;2.47;;;25.20;64.20;;;;;;5063183;28;20033;-54
2023/08/23 11:50:17;;;;;;;5.65;2.30;;;25.40;62.80;;;;;;5045704;28;20048;-51
2023/08/23 11:52:47;;;;;;;5.18;1.80;;;25.30;65.00;;;;;;5044412;28;20051;-55
2023/08/23 11:55:22;;;;;;;;;;;25.80;66.60;;;;;;5028576;28;20128;-54
2023/08/23 11:57:57;;;;;;;7.38;2.47;;;26.00;63.70;;;;;;5052294;28;19919;-56
2023/08/23 12:00:23;;;;;;;5.25;1.70;;;26.10;63.80;;;;;;5048805;28;20025;-56
2023/08/23 12:02:49;;;;;;;6.15;2.17;;;26.30;62.20;;;;;;5051714;28;20060;-57
2023/08/23 12:05:17;;;;;;;3.92;2.13;;;25.90;61.90;;;;;;5066682;28;20071;-54
2023/08/23 12:07:45;;;;;;;3.10;1.75;;;25.30;62.50;;;;;;5058303;28;20033;-57
2023/08/23 12:10:11;;;;;;;2.70;1.60;;;25.30;64.80;;;;;;5050698;28;20040;-55
2023/08/23 12:12:40;;;;;;;3.75;1.98;;;25.10;64.40;;;;;;5064727;28;20412;-51
2023/08/23 12:15:09;;;;;;;5.60;2.00;;;24.90;65.70;;;;;;5052791;28;20106;-55
2023/08/23 12:17:38;;;;;;;4.10;1.88;;;24.60;65.90;;;;;;5055595;28;20154;-55
2023/08/23 12:20:10;;;;;;;18.58;4.07;;;24.30;66.50;;;;;;5061847;28;20033;-55
2023/08/23 12:22:36;;;;;;;41.90;7.68;;;24.10;66.50;;;;;;5063953;28;20032;-53
2023/08/23 12:25:05;;;;;;;18.25;5.13;;;23.70;66.80;;;;;;5045579;28;20029;-54
2023/08/23 12:27:31;;;;;;;;;;;23.60;67.70;;;;;;5067711;28;20024;-56
2023/08/23 12:30:00;;;;;;;3.35;1.83;;;23.40;68.30;;;;;;5049885;28;19958;-58
2023/08/23 12:32:27;;;;;;;5.28;2.33;;;23.50;68.40;;;;;;5042376;28;20041;-55
2023/08/23 12:34:54;;;;;;;5.95;2.08;;;23.50;69.10;;;;;;5060727;28;20041;-56
2023/08/23 12:37:21;;;;;;;6.05;1.90;;;23.80;69.20;;;;;;5050704;28;20052;-55
2023/08/23 12:39:50;;;;;;;20.13;4.97;;;23.90;69.10;;;;;;5062845;28;20029;-55
2023/08/23 12:42:17;;;;;;;7.32;2.30;;;24.00;67.90;;;;;;5028851;28;20033;-58
2023/08/23 12:44:45;;;;;;;6.60;2.15;;;24.00;68.80;;;;;;5027576;28;20099;-53
2023/08/23 12:47:13;;;;;;;5.88;2.15;;;24.00;67.80;;;;;;5031906;28;20044;-55